QFA55 PAFA-PAJN
Flight info
| Callsign | QFA55 |
|---|---|
| Flight time | 1h 27m |
| Altitude | 35000 |
| Route | RDFLG5 RDFLG J502 ORT Q902 IGSOM WOGUS Q902 SSR |
| Aircraft | B738/M-SDE2E3FGHIRWXY/LB1 |
Departure
| Time | 2026-04-29 10:10 |
|---|---|
| Airport | Fairbanks International Airport (PAFA) |
Arrival
| Time | 2026-04-29 11:37 |
|---|---|
| Airport | Juneau International Airport (PAJN) |
| Time | Latitude | Longitude | Altitude | Speed | Heading |
|---|---|---|---|---|---|
| 2026-04-29 09:51 | 64.81646 | -147.86849 | 443 ft | 0 kts | 16° |
| 2026-04-29 09:52 | 64.81665 | -147.86756 | 443 ft | 0 kts | 357° |
| 2026-04-29 10:02 | 64.81662 | -147.86755 | 442 ft | 3 kts | 357° |
| 2026-04-29 10:03 | 64.81638 | -147.86752 | 442 ft | 3 kts | 357° |
| 2026-04-29 10:03 | 64.81614 | -147.86749 | 442 ft | 3 kts | 357° |
| 2026-04-29 10:03 | 64.81590 | -147.86747 | 442 ft | 3 kts | 357° |
| 2026-04-29 10:03 | 64.81567 | -147.86745 | 442 ft | 3 kts | 17° |
| 2026-04-29 10:04 | 64.81549 | -147.86778 | 442 ft | 4 kts | 54° |
| 2026-04-29 10:04 | 64.81547 | -147.86786 | 442 ft | 0 kts | 53° |
| 2026-04-29 10:05 | 64.81552 | -147.86757 | 442 ft | 5 kts | 80° |
| 2026-04-29 10:05 | 64.81497 | -147.86691 | 442 ft | 13 kts | 194° |
| 2026-04-29 10:06 | 64.81442 | -147.86753 | 442 ft | 14 kts | 214° |
| 2026-04-29 10:06 | 64.81361 | -147.86898 | 442 ft | 16 kts | 218° |
| 2026-04-29 10:06 | 64.81262 | -147.87079 | 442 ft | 19 kts | 218° |
| 2026-04-29 10:06 | 64.81147 | -147.87291 | 442 ft | 23 kts | 218° |
| 2026-04-29 10:07 | 64.81016 | -147.87531 | 442 ft | 25 kts | 218° |
| 2026-04-29 10:07 | 64.80879 | -147.87783 | 442 ft | 25 kts | 218° |
| 2026-04-29 10:07 | 64.80742 | -147.88034 | 442 ft | 25 kts | 218° |
| 2026-04-29 10:07 | 64.80605 | -147.88285 | 442 ft | 25 kts | 218° |
| 2026-04-29 10:08 | 64.80468 | -147.88535 | 442 ft | 25 kts | 218° |
| 2026-04-29 10:08 | 64.80372 | -147.88708 | 442 ft | 13 kts | 210° |
| 2026-04-29 10:08 | 64.80317 | -147.88674 | 442 ft | 9 kts | 129° |
| 2026-04-29 10:08 | 64.80292 | -147.88555 | 442 ft | 7 kts | 73° |
| 2026-04-29 10:09 | 64.80303 | -147.88517 | 442 ft | 0 kts | 41° |
| 2026-04-29 10:09 | 64.80304 | -147.88517 | 442 ft | 0 kts | 41° |
| 2026-04-29 10:09 | 64.80361 | -147.88404 | 442 ft | 34 kts | 38° |
| 2026-04-29 10:09 | 64.80719 | -147.87748 | 443 ft | 94 kts | 38° |
| 2026-04-29 10:10 | 64.81375 | -147.86539 | 443 ft | 144 kts | 38° |
| 2026-04-29 10:10 | 64.82262 | -147.84916 | 614 ft | 166 kts | 38° |
| 2026-04-29 10:10 | 64.83132 | -147.83321 | 1302 ft | 159 kts | 38° |
| 2026-04-29 10:10 | 64.83864 | -147.81242 | 1606 ft | 177 kts | 75° |
| 2026-04-29 10:11 | 64.83727 | -147.78421 | 2066 ft | 182 kts | 121° |
| 2026-04-29 10:11 | 64.82678 | -147.76569 | 2371 ft | 202 kts | 162° |
| 2026-04-29 10:11 | 64.81320 | -147.75706 | 3026 ft | 203 kts | 168° |
| 2026-04-29 10:11 | 64.79866 | -147.74864 | 3367 ft | 226 kts | 169° |
| 2026-04-29 10:12 | 64.78308 | -147.73793 | 3865 ft | 243 kts | 160° |
| 2026-04-29 10:12 | 64.76746 | -147.72004 | 4463 ft | 254 kts | 154° |
| 2026-04-29 10:12 | 64.75187 | -147.70011 | 5279 ft | 256 kts | 154° |
| 2026-04-29 10:12 | 64.73592 | -147.68100 | 6076 ft | 258 kts | 156° |
| 2026-04-29 10:13 | 64.71953 | -147.66291 | 6825 ft | 264 kts | 157° |
| 2026-04-29 10:13 | 64.70284 | -147.64516 | 7605 ft | 265 kts | 158° |
| 2026-04-29 10:13 | 64.68645 | -147.62525 | 8379 ft | 267 kts | 146° |
| 2026-04-29 10:13 | 64.67274 | -147.59519 | 9109 ft | 272 kts | 128° |
| 2026-04-29 10:14 | 64.66228 | -147.55746 | 9785 ft | 279 kts | 124° |
| 2026-04-29 10:14 | 64.65203 | -147.51786 | 10283 ft | 293 kts | 124° |
| 2026-04-29 10:14 | 64.64137 | -147.47603 | 10596 ft | 308 kts | 124° |
| 2026-04-29 10:14 | 64.63009 | -147.43196 | 10866 ft | 325 kts | 124° |
| 2026-04-29 10:15 | 64.61812 | -147.38583 | 11196 ft | 340 kts | 124° |
| 2026-04-29 10:15 | 64.60572 | -147.33825 | 11764 ft | 345 kts | 124° |
| 2026-04-29 10:15 | 64.59314 | -147.29016 | 12452 ft | 349 kts | 123° |
| 2026-04-29 10:15 | 64.58038 | -147.24145 | 13106 ft | 354 kts | 124° |
| 2026-04-29 10:16 | 64.56754 | -147.19244 | 13816 ft | 356 kts | 124° |
| 2026-04-29 10:16 | 64.55458 | -147.14305 | 14499 ft | 360 kts | 124° |
| 2026-04-29 10:16 | 64.54146 | -147.09322 | 15191 ft | 363 kts | 124° |
| 2026-04-29 10:16 | 64.52820 | -147.04303 | 15872 ft | 366 kts | 124° |
| 2026-04-29 10:17 | 64.51482 | -146.99247 | 16543 ft | 369 kts | 124° |
| 2026-04-29 10:17 | 64.50129 | -146.94147 | 17210 ft | 373 kts | 124° |
| 2026-04-29 10:17 | 64.48762 | -146.89005 | 17862 ft | 376 kts | 124° |
| 2026-04-29 10:17 | 64.47365 | -146.83758 | 18506 ft | 379 kts | 124° |
| 2026-04-29 10:18 | 64.45972 | -146.78542 | 19133 ft | 382 kts | 124° |
| 2026-04-29 10:18 | 64.44566 | -146.73291 | 19742 ft | 385 kts | 124° |
| 2026-04-29 10:18 | 64.43149 | -146.68009 | 20337 ft | 388 kts | 124° |
| 2026-04-29 10:18 | 64.41717 | -146.62687 | 20912 ft | 391 kts | 124° |
| 2026-04-29 10:19 | 64.40275 | -146.57337 | 21470 ft | 394 kts | 125° |
| 2026-04-29 10:19 | 64.38816 | -146.51940 | 22010 ft | 397 kts | 125° |
| 2026-04-29 10:19 | 64.37348 | -146.46521 | 22528 ft | 400 kts | 125° |
| 2026-04-29 10:19 | 64.35866 | -146.41063 | 23028 ft | 403 kts | 125° |
| 2026-04-29 10:20 | 64.34370 | -146.35571 | 23518 ft | 405 kts | 125° |
| 2026-04-29 10:20 | 64.32865 | -146.30062 | 24010 ft | 407 kts | 125° |
| 2026-04-29 10:20 | 64.31345 | -146.24516 | 24465 ft | 410 kts | 125° |
| 2026-04-29 10:20 | 64.29817 | -146.18947 | 24897 ft | 413 kts | 125° |
| 2026-04-29 10:21 | 64.28249 | -146.13374 | 25304 ft | 416 kts | 126° |
| 2026-04-29 10:21 | 64.26638 | -146.07825 | 25706 ft | 418 kts | 127° |
| 2026-04-29 10:21 | 64.25006 | -146.02267 | 26099 ft | 420 kts | 127° |
| 2026-04-29 10:21 | 64.23371 | -145.96668 | 26475 ft | 423 kts | 127° |
| 2026-04-29 10:22 | 64.21738 | -145.91028 | 26839 ft | 425 kts | 127° |
| 2026-04-29 10:22 | 64.20098 | -145.85347 | 27192 ft | 428 kts | 127° |
| 2026-04-29 10:22 | 64.18446 | -145.79658 | 27529 ft | 430 kts | 127° |
| 2026-04-29 10:22 | 64.16777 | -145.73952 | 27853 ft | 432 kts | 127° |
| 2026-04-29 10:23 | 64.15096 | -145.68231 | 28162 ft | 434 kts | 128° |
| 2026-04-29 10:23 | 64.13406 | -145.62487 | 28452 ft | 436 kts | 128° |
| 2026-04-29 10:23 | 64.11708 | -145.56722 | 28718 ft | 438 kts | 128° |
| 2026-04-29 10:23 | 64.09989 | -145.50899 | 28763 ft | 445 kts | 128° |
| 2026-04-29 10:24 | 64.06477 | -145.39050 | 28988 ft | 454 kts | 128° |
| 2026-04-29 10:24 | 64.04701 | -145.33079 | 29185 ft | 455 kts | 128° |
| 2026-04-29 10:24 | 64.02920 | -145.27106 | 29417 ft | 455 kts | 128° |
| 2026-04-29 10:25 | 64.01135 | -145.21137 | 29642 ft | 456 kts | 128° |
| 2026-04-29 10:25 | 63.99322 | -145.15095 | 29877 ft | 456 kts | 129° |
| 2026-04-29 10:25 | 63.97528 | -145.09135 | 30095 ft | 456 kts | 129° |
| 2026-04-29 10:25 | 63.95734 | -145.03186 | 30314 ft | 456 kts | 129° |
| 2026-04-29 10:26 | 63.93953 | -144.97298 | 30506 ft | 457 kts | 130° |
| 2026-04-29 10:26 | 63.92146 | -144.91337 | 30701 ft | 458 kts | 130° |
| 2026-04-29 10:26 | 63.90335 | -144.85381 | 30880 ft | 459 kts | 130° |
| 2026-04-29 10:26 | 63.88517 | -144.79416 | 31070 ft | 459 kts | 130° |
| 2026-04-29 10:27 | 63.84871 | -144.67500 | 31445 ft | 460 kts | 130° |
| 2026-04-29 10:27 | 63.83044 | -144.61552 | 31620 ft | 460 kts | 130° |
| 2026-04-29 10:27 | 63.81211 | -144.55602 | 31801 ft | 460 kts | 130° |
| 2026-04-29 10:28 | 63.79354 | -144.49589 | 31994 ft | 460 kts | 130° |
| 2026-04-29 10:28 | 63.77537 | -144.43722 | 32159 ft | 461 kts | 130° |
| 2026-04-29 10:28 | 63.75695 | -144.37788 | 32321 ft | 461 kts | 130° |
| 2026-04-29 10:28 | 63.73845 | -144.31845 | 32479 ft | 462 kts | 130° |
| 2026-04-29 10:29 | 63.71991 | -144.25908 | 32642 ft | 462 kts | 130° |
| 2026-04-29 10:29 | 63.70140 | -144.19990 | 32807 ft | 462 kts | 130° |
| 2026-04-29 10:29 | 63.68283 | -144.14073 | 32971 ft | 462 kts | 130° |
| 2026-04-29 10:29 | 63.66427 | -144.08171 | 33138 ft | 462 kts | 130° |
| 2026-04-29 10:30 | 63.64562 | -144.02257 | 33299 ft | 462 kts | 130° |
| 2026-04-29 10:30 | 63.62698 | -143.96365 | 33447 ft | 462 kts | 130° |
| 2026-04-29 10:30 | 63.60829 | -143.90482 | 33580 ft | 463 kts | 130° |
| 2026-04-29 10:30 | 63.58955 | -143.84587 | 33717 ft | 463 kts | 130° |
| 2026-04-29 10:31 | 63.57082 | -143.78701 | 33857 ft | 463 kts | 130° |
| 2026-04-29 10:31 | 63.55206 | -143.72822 | 33997 ft | 463 kts | 130° |
| 2026-04-29 10:31 | 63.53325 | -143.66949 | 34125 ft | 464 kts | 130° |
| 2026-04-29 10:31 | 63.51438 | -143.61079 | 34262 ft | 464 kts | 131° |
| 2026-04-29 10:32 | 63.49551 | -143.55222 | 34396 ft | 464 kts | 131° |
| 2026-04-29 10:32 | 63.47662 | -143.49370 | 34527 ft | 464 kts | 131° |
| 2026-04-29 10:32 | 63.45771 | -143.43528 | 34652 ft | 464 kts | 131° |
| 2026-04-29 10:32 | 63.43876 | -143.37689 | 34768 ft | 464 kts | 131° |
| 2026-04-29 10:33 | 63.41977 | -143.31852 | 34878 ft | 464 kts | 131° |
| 2026-04-29 10:33 | 63.40074 | -143.26020 | 34998 ft | 464 kts | 131° |
| 2026-04-29 10:33 | 63.38171 | -143.20202 | 35077 ft | 465 kts | 131° |
| 2026-04-29 10:34 | 63.34331 | -143.08511 | 35096 ft | 469 kts | 131° |
| 2026-04-29 10:34 | 63.30461 | -142.96779 | 35099 ft | 471 kts | 131° |
| 2026-04-29 10:35 | 63.26575 | -142.85064 | 35100 ft | 470 kts | 131° |
| 2026-04-29 10:35 | 63.22674 | -142.73362 | 35100 ft | 466 kts | 131° |
| 2026-04-29 10:36 | 63.18819 | -142.61861 | 35106 ft | 464 kts | 132° |
| 2026-04-29 10:36 | 63.14957 | -142.50404 | 35104 ft | 464 kts | 132° |
| 2026-04-29 10:37 | 63.11091 | -142.38982 | 35104 ft | 464 kts | 132° |
| 2026-04-29 10:37 | 63.07209 | -142.27573 | 35104 ft | 464 kts | 132° |
| 2026-04-29 10:38 | 63.03319 | -142.16201 | 35105 ft | 465 kts | 133° |
| 2026-04-29 10:38 | 62.99413 | -142.04840 | 35110 ft | 465 kts | 132° |
| 2026-04-29 10:39 | 62.95495 | -141.93544 | 35102 ft | 464 kts | 135° |
| 2026-04-29 10:39 | 62.90928 | -141.83809 | 35114 ft | 457 kts | 144° |
| 2026-04-29 10:40 | 62.86176 | -141.74556 | 35107 ft | 457 kts | 144° |
| 2026-04-29 10:40 | 62.82217 | -141.66914 | 35105 ft | 457 kts | 144° |
| 2026-04-29 10:41 | 62.77463 | -141.57706 | 35105 ft | 456 kts | 144° |
| 2026-04-29 10:41 | 62.72671 | -141.48477 | 35105 ft | 456 kts | 145° |
| 2026-04-29 10:42 | 62.67902 | -141.39352 | 35105 ft | 456 kts | 145° |
| 2026-04-29 10:42 | 62.63134 | -141.30255 | 35106 ft | 456 kts | 145° |
| 2026-04-29 10:43 | 62.58358 | -141.21186 | 35106 ft | 456 kts | 145° |
| 2026-04-29 10:43 | 62.53574 | -141.12144 | 35108 ft | 457 kts | 145° |
| 2026-04-29 10:44 | 62.48776 | -141.03122 | 35109 ft | 457 kts | 145° |
| 2026-04-29 10:44 | 62.43976 | -140.94129 | 35111 ft | 456 kts | 145° |
| 2026-04-29 10:45 | 62.39188 | -140.85221 | 35110 ft | 453 kts | 146° |
| 2026-04-29 10:45 | 62.34422 | -140.76396 | 35110 ft | 451 kts | 146° |
| 2026-04-29 10:46 | 62.29664 | -140.67619 | 35111 ft | 451 kts | 146° |
| 2026-04-29 10:46 | 62.24886 | -140.58845 | 35112 ft | 452 kts | 146° |
| 2026-04-29 10:47 | 62.20097 | -140.50085 | 35115 ft | 453 kts | 146° |
| 2026-04-29 10:47 | 62.15299 | -140.41349 | 35117 ft | 453 kts | 146° |
| 2026-04-29 10:48 | 62.10499 | -140.32645 | 35118 ft | 453 kts | 146° |
| 2026-04-29 10:48 | 62.05656 | -140.23903 | 35121 ft | 453 kts | 146° |
| 2026-04-29 10:49 | 62.00838 | -140.15242 | 35121 ft | 453 kts | 147° |
| 2026-04-29 10:49 | 61.96010 | -140.06597 | 35128 ft | 453 kts | 147° |
| 2026-04-29 10:50 | 61.91179 | -139.97992 | 35106 ft | 453 kts | 147° |
| 2026-04-29 10:50 | 61.86353 | -139.89423 | 35119 ft | 452 kts | 147° |
| 2026-04-29 10:51 | 61.81519 | -139.80884 | 35120 ft | 453 kts | 147° |
| 2026-04-29 10:51 | 61.76677 | -139.72365 | 35117 ft | 453 kts | 147° |
| 2026-04-29 10:52 | 61.71820 | -139.63855 | 35122 ft | 454 kts | 147° |
| 2026-04-29 10:52 | 61.66960 | -139.55373 | 35109 ft | 453 kts | 148° |
| 2026-04-29 10:53 | 61.62102 | -139.46934 | 35115 ft | 453 kts | 148° |
| 2026-04-29 10:53 | 61.57238 | -139.38523 | 35117 ft | 453 kts | 148° |
| 2026-04-29 10:54 | 61.52370 | -139.30132 | 35114 ft | 454 kts | 148° |
| 2026-04-29 10:54 | 61.47486 | -139.21754 | 35115 ft | 454 kts | 148° |
| 2026-04-29 10:55 | 61.42597 | -139.13403 | 35115 ft | 454 kts | 148° |
| 2026-04-29 10:55 | 61.37699 | -139.05086 | 35112 ft | 453 kts | 150° |
| 2026-04-29 10:56 | 61.32509 | -138.97922 | 35117 ft | 447 kts | 155° |
| 2026-04-29 10:56 | 61.27228 | -138.90954 | 35115 ft | 446 kts | 156° |
| 2026-04-29 10:57 | 61.21978 | -138.84060 | 35115 ft | 447 kts | 155° |
| 2026-04-29 10:57 | 61.16725 | -138.77155 | 35117 ft | 447 kts | 156° |
| 2026-04-29 10:58 | 61.11459 | -138.70274 | 35119 ft | 447 kts | 156° |
| 2026-04-29 10:58 | 61.06192 | -138.63424 | 35121 ft | 447 kts | 156° |
| 2026-04-29 10:59 | 61.00924 | -138.56594 | 35126 ft | 448 kts | 156° |
| 2026-04-29 10:59 | 60.95644 | -138.49777 | 35132 ft | 448 kts | 156° |
| 2026-04-29 11:00 | 60.90363 | -138.42987 | 35139 ft | 448 kts | 156° |
| 2026-04-29 11:00 | 60.85071 | -138.36209 | 35145 ft | 448 kts | 156° |
| 2026-04-29 11:01 | 60.79775 | -138.29453 | 35154 ft | 449 kts | 156° |
| 2026-04-29 11:01 | 60.74465 | -138.22705 | 35159 ft | 449 kts | 156° |
| 2026-04-29 11:02 | 60.69150 | -138.15977 | 35173 ft | 450 kts | 156° |
| 2026-04-29 11:02 | 60.63829 | -138.09268 | 35181 ft | 450 kts | 156° |
| 2026-04-29 11:03 | 60.58505 | -138.02581 | 35189 ft | 450 kts | 156° |
| 2026-04-29 11:03 | 60.53141 | -137.95872 | 35195 ft | 450 kts | 156° |
| 2026-04-29 11:04 | 60.47804 | -137.89224 | 35202 ft | 450 kts | 156° |
| 2026-04-29 11:04 | 60.42458 | -137.82588 | 35207 ft | 451 kts | 157° |
| 2026-04-29 11:05 | 60.37101 | -137.75964 | 35213 ft | 451 kts | 157° |
| 2026-04-29 11:05 | 60.31742 | -137.69365 | 35218 ft | 451 kts | 157° |
| 2026-04-29 11:06 | 60.26379 | -137.62786 | 35223 ft | 451 kts | 157° |
| 2026-04-29 11:06 | 60.21011 | -137.56227 | 35227 ft | 451 kts | 157° |
| 2026-04-29 11:07 | 60.15642 | -137.49692 | 35231 ft | 451 kts | 157° |
| 2026-04-29 11:07 | 60.10272 | -137.43181 | 35235 ft | 451 kts | 157° |
| 2026-04-29 11:08 | 60.04905 | -137.36698 | 35238 ft | 451 kts | 157° |
| 2026-04-29 11:08 | 59.99526 | -137.30227 | 35242 ft | 451 kts | 157° |
| 2026-04-29 11:09 | 59.94137 | -137.23767 | 35244 ft | 452 kts | 157° |
| 2026-04-29 11:09 | 59.88737 | -137.17319 | 35249 ft | 452 kts | 158° |
| 2026-04-29 11:10 | 59.83335 | -137.10893 | 35250 ft | 452 kts | 158° |
| 2026-04-29 11:10 | 59.77928 | -137.04487 | 35256 ft | 453 kts | 158° |
| 2026-04-29 11:11 | 59.72513 | -136.98096 | 35260 ft | 453 kts | 158° |
| 2026-04-29 11:11 | 59.67092 | -136.91720 | 35263 ft | 453 kts | 158° |
| 2026-04-29 11:12 | 59.61667 | -136.85366 | 34699 ft | 452 kts | 158° |
| 2026-04-29 11:12 | 59.58974 | -136.82212 | 34156 ft | 447 kts | 159° |
| 2026-04-29 11:12 | 59.57175 | -136.80109 | 33806 ft | 444 kts | 159° |
| 2026-04-29 11:12 | 59.54527 | -136.77020 | 33292 ft | 439 kts | 159° |
| 2026-04-29 11:13 | 59.51910 | -136.73981 | 32793 ft | 435 kts | 159° |
| 2026-04-29 11:13 | 59.49310 | -136.70970 | 32296 ft | 433 kts | 160° |
| 2026-04-29 11:13 | 59.46668 | -136.67936 | 31787 ft | 445 kts | 160° |
| 2026-04-29 11:13 | 59.43996 | -136.64859 | 31271 ft | 447 kts | 160° |
| 2026-04-29 11:14 | 59.41319 | -136.61758 | 30749 ft | 444 kts | 160° |
| 2026-04-29 11:14 | 59.38677 | -136.58685 | 30236 ft | 439 kts | 160° |
| 2026-04-29 11:14 | 59.36064 | -136.55663 | 29729 ft | 434 kts | 160° |
| 2026-04-29 11:14 | 59.33475 | -136.52697 | 29227 ft | 428 kts | 161° |
| 2026-04-29 11:15 | 59.30911 | -136.49776 | 28731 ft | 424 kts | 161° |
| 2026-04-29 11:15 | 59.28375 | -136.46886 | 28240 ft | 420 kts | 160° |
| 2026-04-29 11:15 | 59.25869 | -136.44029 | 27754 ft | 415 kts | 160° |
| 2026-04-29 11:15 | 59.23380 | -136.41207 | 27279 ft | 411 kts | 160° |
| 2026-04-29 11:16 | 59.20917 | -136.38427 | 26808 ft | 407 kts | 160° |
| 2026-04-29 11:16 | 59.18477 | -136.35680 | 26338 ft | 403 kts | 160° |
| 2026-04-29 11:16 | 59.16060 | -136.32960 | 25871 ft | 399 kts | 160° |
| 2026-04-29 11:16 | 59.13668 | -136.30269 | 25407 ft | 396 kts | 160° |
| 2026-04-29 11:17 | 59.11292 | -136.27599 | 24947 ft | 392 kts | 160° |
| 2026-04-29 11:17 | 59.08850 | -136.24880 | 24476 ft | 402 kts | 160° |
| 2026-04-29 11:17 | 59.06438 | -136.22184 | 24007 ft | 398 kts | 159° |
| 2026-04-29 11:17 | 59.04052 | -136.19501 | 23545 ft | 394 kts | 159° |
| 2026-04-29 11:18 | 59.01692 | -136.16854 | 23087 ft | 389 kts | 159° |
| 2026-04-29 11:18 | 58.99355 | -136.14249 | 22635 ft | 385 kts | 159° |
| 2026-04-29 11:18 | 58.97048 | -136.11688 | 22189 ft | 380 kts | 159° |
| 2026-04-29 11:18 | 58.94763 | -136.09156 | 21747 ft | 376 kts | 159° |
| 2026-04-29 11:19 | 58.92504 | -136.06653 | 21311 ft | 371 kts | 159° |
| 2026-04-29 11:19 | 58.90276 | -136.04186 | 20881 ft | 367 kts | 159° |
| 2026-04-29 11:19 | 58.88075 | -136.01751 | 20456 ft | 362 kts | 159° |
| 2026-04-29 11:19 | 58.85903 | -135.99353 | 20037 ft | 357 kts | 158° |
| 2026-04-29 11:20 | 58.83758 | -135.96989 | 19623 ft | 353 kts | 158° |
| 2026-04-29 11:20 | 58.81641 | -135.94660 | 19216 ft | 348 kts | 158° |
| 2026-04-29 11:20 | 58.79520 | -135.92339 | 18808 ft | 353 kts | 158° |
| 2026-04-29 11:20 | 58.77386 | -135.90003 | 18395 ft | 351 kts | 158° |
| 2026-04-29 11:21 | 58.75272 | -135.87682 | 17983 ft | 349 kts | 158° |
| 2026-04-29 11:21 | 58.73469 | -135.85702 | 17639 ft | 346 kts | 158° |
| 2026-04-29 11:21 | 58.71271 | -135.83297 | 17215 ft | 344 kts | 158° |
| 2026-04-29 11:21 | 58.69192 | -135.81029 | 16816 ft | 342 kts | 158° |
| 2026-04-29 11:22 | 58.67128 | -135.78783 | 16419 ft | 340 kts | 157° |
| 2026-04-29 11:22 | 58.65076 | -135.76551 | 16024 ft | 338 kts | 157° |
| 2026-04-29 11:22 | 58.63029 | -135.74327 | 15630 ft | 337 kts | 157° |
| 2026-04-29 11:22 | 58.60997 | -135.72119 | 15239 ft | 334 kts | 157° |
| 2026-04-29 11:23 | 58.58980 | -135.69931 | 14851 ft | 332 kts | 157° |
| 2026-04-29 11:23 | 58.56964 | -135.67752 | 14305 ft | 333 kts | 156° |
| 2026-04-29 11:23 | 58.54951 | -135.65576 | 13795 ft | 330 kts | 156° |
| 2026-04-29 11:23 | 58.52967 | -135.63429 | 13371 ft | 324 kts | 156° |
| 2026-04-29 11:24 | 58.51031 | -135.61336 | 12981 ft | 316 kts | 156° |
| 2026-04-29 11:24 | 58.49097 | -135.59260 | 12608 ft | 325 kts | 156° |
| 2026-04-29 11:24 | 58.47128 | -135.57152 | 12227 ft | 323 kts | 155° |
| 2026-04-29 11:24 | 58.45191 | -135.55066 | 11855 ft | 315 kts | 155° |
| 2026-04-29 11:25 | 58.43304 | -135.53033 | 11492 ft | 310 kts | 155° |
| 2026-04-29 11:25 | 58.41404 | -135.51001 | 11135 ft | 316 kts | 155° |
| 2026-04-29 11:25 | 58.39487 | -135.48956 | 10761 ft | 316 kts | 154° |
| 2026-04-29 11:25 | 58.37589 | -135.46926 | 10458 ft | 306 kts | 154° |
| 2026-04-29 11:26 | 58.34081 | -135.43164 | 10220 ft | 274 kts | 155° |
| 2026-04-29 11:26 | 58.32454 | -135.41433 | 10106 ft | 264 kts | 155° |
| 2026-04-29 11:26 | 58.30862 | -135.39746 | 9992 ft | 260 kts | 155° |
| 2026-04-29 11:27 | 58.29275 | -135.38068 | 9703 ft | 263 kts | 154° |
| 2026-04-29 11:27 | 58.27678 | -135.36377 | 9385 ft | 260 kts | 154° |
| 2026-04-29 11:27 | 58.26119 | -135.34720 | 9082 ft | 254 kts | 154° |
| 2026-04-29 11:27 | 58.24578 | -135.33086 | 8786 ft | 253 kts | 154° |
| 2026-04-29 11:28 | 58.23048 | -135.31468 | 8492 ft | 252 kts | 154° |
| 2026-04-29 11:28 | 58.21501 | -135.29835 | 8195 ft | 251 kts | 153° |
| 2026-04-29 11:28 | 58.19981 | -135.28228 | 7904 ft | 250 kts | 153° |
| 2026-04-29 11:28 | 58.18567 | -135.26334 | 7609 ft | 251 kts | 131° |
| 2026-04-29 11:29 | 58.17914 | -135.23279 | 7324 ft | 256 kts | 95° |
| 2026-04-29 11:29 | 58.18350 | -135.20062 | 7034 ft | 256 kts | 60° |
| 2026-04-29 11:29 | 58.19345 | -135.17363 | 6748 ft | 256 kts | 56° |
| 2026-04-29 11:29 | 58.20328 | -135.14757 | 6437 ft | 253 kts | 57° |
| 2026-04-29 11:30 | 58.21198 | -135.11896 | 6168 ft | 250 kts | 67° |
| 2026-04-29 11:30 | 58.21879 | -135.08940 | 6073 ft | 241 kts | 70° |
| 2026-04-29 11:30 | 58.22749 | -135.06221 | 5918 ft | 244 kts | 45° |
| 2026-04-29 11:30 | 58.24212 | -135.04672 | 5758 ft | 245 kts | 13° |
| 2026-04-29 11:31 | 58.25899 | -135.04104 | 5492 ft | 246 kts | 10° |
| 2026-04-29 11:31 | 58.27560 | -135.03557 | 5213 ft | 238 kts | 10° |
| 2026-04-29 11:31 | 58.29169 | -135.03024 | 4953 ft | 231 kts | 10° |
| 2026-04-29 11:31 | 58.30741 | -135.02504 | 4702 ft | 228 kts | 10° |
| 2026-04-29 11:32 | 58.32304 | -135.01990 | 4455 ft | 227 kts | 10° |
| 2026-04-29 11:32 | 58.33830 | -135.01459 | 4203 ft | 219 kts | 17° |
| 2026-04-29 11:32 | 58.35101 | -135.00003 | 3988 ft | 211 kts | 51° |
| 2026-04-29 11:32 | 58.35663 | -134.97574 | 3748 ft | 196 kts | 88° |
| 2026-04-29 11:33 | 58.35717 | -134.95045 | 3556 ft | 189 kts | 91° |
| 2026-04-29 11:33 | 58.35721 | -134.92558 | 3343 ft | 185 kts | 92° |
| 2026-04-29 11:33 | 58.35720 | -134.90133 | 3150 ft | 183 kts | 92° |
| 2026-04-29 11:33 | 58.35723 | -134.87715 | 2941 ft | 180 kts | 92° |
| 2026-04-29 11:34 | 58.35730 | -134.85354 | 2738 ft | 174 kts | 91° |
| 2026-04-29 11:34 | 58.35738 | -134.83093 | 2525 ft | 168 kts | 91° |
| 2026-04-29 11:34 | 58.35745 | -134.80867 | 2283 ft | 168 kts | 91° |
| 2026-04-29 11:34 | 58.35749 | -134.78653 | 2053 ft | 167 kts | 91° |
| 2026-04-29 11:35 | 58.35755 | -134.76456 | 1817 ft | 162 kts | 91° |
| 2026-04-29 11:35 | 58.35772 | -134.74388 | 1558 ft | 153 kts | 89° |
| 2026-04-29 11:35 | 58.35816 | -134.72383 | 1314 ft | 150 kts | 89° |
| 2026-04-29 11:35 | 58.35844 | -134.70412 | 1121 ft | 147 kts | 89° |
| 2026-04-29 11:36 | 58.35857 | -134.68494 | 926 ft | 144 kts | 88° |
| 2026-04-29 11:36 | 58.35888 | -134.66586 | 707 ft | 144 kts | 89° |
| 2026-04-29 11:36 | 58.35912 | -134.64680 | 519 ft | 141 kts | 88° |
| 2026-04-29 11:36 | 58.35956 | -134.62818 | 316 ft | 141 kts | 87° |
| 2026-04-29 11:37 | 58.35910 | -134.60956 | 152 ft | 141 kts | 99° |
| 2026-04-29 11:37 | 58.35708 | -134.59161 | 39 ft | 136 kts | 104° |
| 2026-04-29 11:37 | 58.35513 | -134.57743 | 30 ft | 77 kts | 104° |
| 2026-04-29 11:37 | 58.35404 | -134.56944 | 30 ft | 42 kts | 105° |
| 2026-04-29 11:38 | 58.35404 | -134.56712 | 30 ft | 15 kts | 41° |
| 2026-04-29 11:38 | 58.35475 | -134.56700 | 30 ft | 10 kts | 309° |
| 2026-04-29 11:38 | 58.35499 | -134.56827 | 30 ft | 11 kts | 284° |
| 2026-04-29 11:38 | 58.35520 | -134.56972 | 30 ft | 11 kts | 285° |
| 2026-04-29 11:39 | 58.35542 | -134.57126 | 30 ft | 16 kts | 285° |
| 2026-04-29 11:39 | 58.35573 | -134.57343 | 30 ft | 19 kts | 284° |
| 2026-04-29 11:39 | 58.35612 | -134.57622 | 30 ft | 22 kts | 285° |
| 2026-04-29 11:39 | 58.35652 | -134.57909 | 30 ft | 23 kts | 284° |
| 2026-04-29 11:40 | 58.35687 | -134.58161 | 30 ft | 15 kts | 284° |
| 2026-04-29 11:40 | 58.35713 | -134.58345 | 30 ft | 15 kts | 286° |
| 2026-04-29 11:40 | 58.35742 | -134.58540 | 30 ft | 12 kts | 294° |
| 2026-04-29 11:40 | 58.35798 | -134.58601 | 30 ft | 8 kts | 353° |
| 2026-04-29 11:41 | 58.35861 | -134.58589 | 30 ft | 9 kts | 32° |
| 2026-04-29 11:41 | 58.35879 | -134.58527 | 30 ft | 5 kts | 81° |
| 2026-04-29 11:41 | 58.35879 | -134.58479 | 30 ft | 2 kts | 100° |
| 2026-04-29 11:41 | 58.35878 | -134.58472 | 30 ft | 0 kts | 101° |